Hayes, South Dakota
Current Conditions -  °F | °C
As of 8:55 AM on Sunday 23 Nov 2014 (Local Time) from KPHP Reporting Station
Light Rain Light Rain  
Wind Chill: 37°   Ceiling: Unl
Heat Index: 46°   Visibility: 10mi
Dew Point: 26°   Wind: 29mph
Humidity: 46%   Direction: 300°WNW
Pressure: 29.64"   Gusts: 44mph
Location:  44.37°N, 101.02°W
Report Text: KPHP 231555Z AUTO 30025G38KT 10SM -RA CLR 08/M03 A2964 RMK AO2 PK WND 30038/1523 RAB17 SLP041 P0000 T00781033 $
Loading
Personal Weather Stations






























Interactive Weather Map New forecast layout! Learn more

10-Day Weather Forecast

Advertisements
Track Severe Weather on mobile